LFOK

Châlons-Vatry Air Base Airport

Châlons/Vatry, France
TAF LFOK 182300Z 1900/1924 13005KT CAVOK BECMG 1916/1918 OVC014 TEMPO 1918/1924 1500 SN OVC004
Issued Valid From Valid To
Jan-18 @ 23:00 UTC
(4 hours ago)
Jan-19 @ 00:00 UTC
(3 hours ago)
Jan-20 @ 00:00 UTC
(in 21 hours)
Jan-19 @ 00:00 to Jan-19 @ 16:00
TAF LFOK 182300Z 1900/1924 13005KT CAVOK
Wind Visibility Clouds Conditions
130° at 5 knots 10,000+ meters
  • No significant clouds
Becoming Jan-19 @ 16:00 to Jan-20 @ 00:00
BECMG 1916/1918 OVC014
Wind Visibility Clouds Conditions
130° at 5 knots 10,000+ meters
  • Overcast at 1,400' AGL
Temporary Jan-19 @ 18:00 to Jan-20 @ 00:00
TEMPO 1918/1924 1500 SN OVC004
Visibility Clouds Conditions
1,497 meters
  • Overcast at 400' AGL
  • Snow
TAF LFOK 182300Z 1900/1924 13005KT CAVOK BECMG 1916/1918 OVC014 TEMPO 1918/1924 1500 SN OVC004
Issued Jan-18 @ 23:00 UTC
(4 hours ago)
Valid From Jan-19 @ 00:00 UTC
(3 hours ago)
Valid To Jan-20 @ 00:00 UTC
(in 21 hours)
Jan-19 @ 00:00 - Jan-19 @ 16:00
Wind Visibility
130° at 5 knots 10,000+ meters
Clouds
  • No significant clouds
Conditions
Becoming Jan-19 @ 16:00 - Jan-20 @ 00:00
Wind Visibility
130° at 5 knots 10,000+ meters
Clouds
  • Overcast at 1,400' AGL
Conditions
Temporary Jan-19 @ 18:00 - Jan-20 @ 00:00
Clouds
  • Overcast at 400' AGL
Conditions
  • Snow